createdAt,value
2019-03-18T00:00:09.784Z,1.90
2019-03-18T00:02:37.582Z,3.47
2019-03-18T00:05:10.580Z,2.87
2019-03-18T00:07:38.463Z,0.90
2019-03-18T00:10:06.540Z,1.57
2019-03-18T00:12:34.440Z,3.37
2019-03-18T00:15:03.948Z,1.37
2019-03-18T00:17:31.775Z,3.73
2019-03-18T00:19:59.569Z,1.30
2019-03-18T00:22:27.377Z,1.43
2019-03-18T00:25:00.385Z,2.13
2019-03-18T00:27:28.168Z,2.07
2019-03-18T00:29:55.960Z,1.70
2019-03-18T00:32:23.804Z,1.23
2019-03-18T00:34:51.684Z,1.70
2019-03-18T00:37:19.519Z,2.10
2019-03-18T00:39:47.295Z,1.70
2019-03-18T00:42:15.052Z,1.10
2019-03-18T00:45:33.042Z,3.53
2019-03-18T00:48:00.840Z,1.63
2019-03-18T00:50:28.634Z,2.20
2019-03-18T00:52:57.466Z,4.13
2019-03-18T00:55:28.343Z,0.90
2019-03-18T00:57:56.321Z,1.30
2019-03-18T01:00:25.244Z,1.33
2019-03-18T01:02:53.055Z,2.07
2019-03-18T01:05:45.497Z,1.23
2019-03-18T01:08:16.135Z,1.57
2019-03-18T01:10:44.050Z,1.23
2019-03-18T01:13:11.859Z,1.57
2019-03-18T01:15:39.713Z,1.37
2019-03-18T01:18:08.650Z,1.47
2019-03-18T01:20:36.453Z,1.07
2019-03-18T01:23:04.196Z,6.13
2019-03-18T01:25:31.979Z,2.80
2019-03-18T01:27:59.812Z,2.13
2019-03-18T01:30:27.775Z,3.33
2019-03-18T01:32:55.933Z,1.40
2019-03-18T01:35:33.983Z,1.63
2019-03-18T01:38:01.828Z,4.27
2019-03-18T01:40:29.637Z,3.33
2019-03-18T01:42:57.453Z,1.70
2019-03-18T01:45:25.238Z,3.53
2019-03-18T01:47:53.068Z,4.33
2019-03-18T01:50:20.961Z,3.10
2019-03-18T01:52:48.728Z,3.00
2019-03-18T01:55:16.537Z,1.70
2019-03-18T01:57:44.315Z,2.97
2019-03-18T02:00:12.203Z,2.53
2019-03-18T02:02:40.702Z,2.23
2019-03-18T02:05:09.545Z,2.07
2019-03-18T02:07:37.354Z,3.50
2019-03-18T02:10:06.472Z,2.43
2019-03-18T02:12:34.270Z,2.80
2019-03-18T02:15:02.088Z,2.30
2019-03-18T02:17:29.865Z,3.10
2019-03-18T02:19:57.725Z,2.80
2019-03-18T02:22:25.528Z,4.43
2019-03-18T02:24:55.462Z,5.53
2019-03-18T02:27:23.246Z,7.10
2019-03-18T02:29:51.029Z,6.23
2019-03-18T02:32:18.765Z,4.13
2019-03-18T02:34:46.603Z,2.13
2019-03-18T02:37:14.430Z,3.13
2019-03-18T02:39:42.225Z,3.40
2019-03-18T02:42:10.034Z,1.87
2019-03-18T02:44:43.174Z,3.50
2019-03-18T02:47:10.957Z,3.20
2019-03-18T02:49:38.759Z,4.77
2019-03-18T02:52:06.580Z,3.50
2019-03-18T02:54:34.356Z,5.10
2019-03-18T02:57:02.102Z,3.27
2019-03-18T02:59:29.923Z,5.03
2019-03-18T03:01:57.714Z,2.20
2019-03-18T03:04:30.701Z,3.73
2019-03-18T03:06:58.469Z,5.03
2019-03-18T03:09:26.304Z,4.83
2019-03-18T03:11:54.088Z,5.37
2019-03-18T03:14:21.934Z,3.83
2019-03-18T03:16:49.742Z,5.27
2019-03-18T03:19:17.533Z,3.70
2019-03-18T03:21:45.276Z,3.03
2019-03-18T03:24:13.065Z,4.77
2019-03-18T03:26:40.878Z,4.10
2019-03-18T03:29:08.670Z,4.53
2019-03-18T03:31:36.497Z,4.00
2019-03-18T03:34:04.292Z,5.93
2019-03-18T03:36:32.143Z,4.97
2019-03-18T03:38:59.911Z,3.93
2019-03-18T03:41:27.794Z,4.70
2019-03-18T03:43:55.911Z,4.10
2019-03-18T03:46:23.845Z,3.70
2019-03-18T03:48:51.594Z,3.33
2019-03-18T03:51:19.373Z,6.23
2019-03-18T03:53:47.158Z,4.97
2019-03-18T03:56:15.001Z,5.33
2019-03-18T03:58:42.765Z,4.03
2019-03-18T04:01:23.517Z,4.67
2019-03-18T04:03:51.573Z,4.93
2019-03-18T04:06:19.409Z,2.53
2019-03-18T04:08:47.192Z,5.80
2019-03-18T04:11:15.022Z,4.67
2019-03-18T04:13:53.001Z,3.10
2019-03-18T04:16:20.813Z,6.33
2019-03-18T04:18:48.598Z,3.03
2019-03-18T04:21:16.337Z,4.60
2019-03-18T04:23:44.336Z,5.00
2019-03-18T04:26:12.140Z,4.03
2019-03-18T04:28:40.243Z,6.67
2019-03-18T04:31:08.005Z,10.90
2019-03-18T04:33:39.017Z,3.50
2019-03-18T04:36:05.879Z,7.77
2019-03-18T04:38:33.671Z,6.90
2019-03-18T04:41:01.429Z,6.67
2019-03-18T04:43:29.488Z,4.50
2019-03-18T04:45:57.324Z,3.40
2019-03-18T04:48:25.118Z,5.93
2019-03-18T04:50:52.878Z,7.13
2019-03-18T04:53:20.682Z,3.37
2019-03-18T04:55:48.468Z,3.93
2019-03-18T04:58:16.280Z,5.27
2019-03-18T05:00:44.072Z,3.83
2019-03-18T05:03:16.902Z,4.10
2019-03-18T05:05:44.716Z,3.50
2019-03-18T05:08:12.469Z,3.07
2019-03-18T05:10:40.277Z,5.53
2019-03-18T05:13:08.121Z,3.83
2019-03-18T05:15:35.922Z,7.17
2019-03-18T05:18:03.677Z,3.70
2019-03-18T05:20:31.481Z,3.20
2019-03-18T05:22:59.235Z,6.87
2019-03-18T05:25:27.010Z,4.47
2019-03-18T05:27:54.800Z,5.53
2019-03-18T05:30:22.593Z,4.70
2019-03-18T05:32:50.407Z,3.30
2019-03-18T05:35:18.412Z,7.13
2019-03-18T05:37:46.234Z,4.27
2019-03-18T05:40:14.016Z,4.70
2019-03-18T05:42:41.842Z,6.10
2019-03-18T05:45:09.572Z,4.27
2019-03-18T05:47:39.560Z,3.80
2019-03-18T05:50:07.541Z,4.97
2019-03-18T05:52:35.320Z,6.40
2019-03-18T05:55:08.236Z,3.97
2019-03-18T05:57:36.028Z,5.20
2019-03-18T06:00:04.848Z,6.60
2019-03-18T06:02:32.874Z,3.70
2019-03-18T06:05:00.657Z,3.47
2019-03-18T06:07:28.501Z,5.57
2019-03-18T06:09:56.302Z,8.63
2019-03-18T06:12:24.059Z,6.33
2019-03-18T06:15:07.637Z,3.73
2019-03-18T06:20:13.945Z,7.70
2019-03-18T06:22:41.734Z,3.40
2019-03-18T06:25:09.555Z,8.70
2019-03-18T06:30:33.437Z,5.40
2019-03-18T06:33:01.257Z,8.73
2019-03-18T06:35:29.251Z,9.43
2019-03-18T06:37:57.098Z,5.03
2019-03-18T06:40:24.914Z,4.47
2019-03-18T06:42:52.716Z,5.43
2019-03-18T06:45:20.676Z,4.87
2019-03-18T06:47:48.464Z,3.80
2019-03-18T06:50:16.300Z,3.27
2019-03-18T06:52:44.043Z,5.90
2019-03-18T06:55:11.869Z,6.33
2019-03-18T06:57:39.666Z,9.77
2019-03-18T07:00:09.183Z,4.33
2019-03-18T07:02:37.017Z,4.83
2019-03-18T07:05:05.677Z,5.23
2019-03-18T07:07:33.494Z,8.10
2019-03-18T07:10:01.400Z,8.07
2019-03-18T07:12:29.270Z,8.73
2019-03-18T07:14:57.203Z,5.90
2019-03-18T07:17:25.030Z,5.77
2019-03-18T07:19:52.842Z,6.50
2019-03-18T07:22:22.786Z,3.77
2019-03-18T07:24:50.696Z,10.10
2019-03-18T07:27:18.478Z,7.60
2019-03-18T07:29:46.389Z,5.40
2019-03-18T07:32:15.318Z,2.97
2019-03-18T07:34:43.729Z,3.57
2019-03-18T07:37:11.552Z,5.60
2019-03-18T07:39:39.668Z,5.03
2019-03-18T07:42:07.425Z,4.10
2019-03-18T07:44:35.219Z,5.17
2019-03-18T07:47:03.045Z,7.57
2019-03-18T07:49:30.864Z,4.97
2019-03-18T07:51:58.654Z,3.63
2019-03-18T07:54:32.669Z,7.77
2019-03-18T07:56:56.454Z,5.80
2019-03-18T07:59:24.313Z,6.70
2019-03-18T08:01:52.109Z,4.03
2019-03-18T08:04:19.955Z,4.70
2019-03-18T08:06:47.776Z,6.50
2019-03-18T08:09:15.551Z,5.90
2019-03-18T08:11:43.402Z,4.40
2019-03-18T08:14:16.717Z,2.40
2019-03-18T08:16:44.582Z,4.23
2019-03-18T08:19:12.391Z,4.63
2019-03-18T08:21:40.130Z,3.53
2019-03-18T08:24:07.950Z,4.13
2019-03-18T08:26:35.755Z,3.33
2019-03-18T08:29:03.877Z,4.23
2019-03-18T08:31:31.681Z,2.90
2019-03-18T08:34:04.583Z,4.63
2019-03-18T08:36:32.364Z,4.47
2019-03-18T08:39:00.122Z,3.67
2019-03-18T08:41:27.922Z,4.23
2019-03-18T08:43:55.711Z,5.87
2019-03-18T08:46:23.524Z,7.40
2019-03-18T08:48:55.771Z,7.47
2019-03-18T08:51:21.001Z,6.20
2019-03-18T08:53:48.948Z,6.73
2019-03-18T08:56:16.715Z,6.77
2019-03-18T08:58:44.466Z,4.77
2019-03-18T09:01:12.277Z,3.87
2019-03-18T09:03:40.062Z,3.77
2019-03-18T09:06:07.872Z,3.57
2019-03-18T09:08:35.633Z,5.70
2019-03-18T09:11:03.402Z,3.23
2019-03-18T09:13:36.393Z,4.90
2019-03-18T09:16:23.656Z,2.90
2019-03-18T09:18:51.400Z,3.27
2019-03-18T09:21:19.175Z,5.03
2019-03-18T09:23:46.956Z,5.23
2019-03-18T09:26:14.727Z,5.40
2019-03-18T09:28:42.527Z,4.43
2019-03-18T09:31:10.378Z,3.33
2019-03-18T09:33:43.395Z,2.23
2019-03-18T09:36:11.174Z,3.40
2019-03-18T09:38:38.921Z,2.40
2019-03-18T09:41:06.749Z,4.80
2019-03-18T09:43:34.584Z,3.03
2019-03-18T09:46:02.342Z,3.50
2019-03-18T09:48:30.115Z,2.37
2019-03-18T09:50:57.916Z,2.63
2019-03-18T09:55:52.683Z,2.80
2019-03-18T09:58:20.922Z,2.83
2019-03-18T10:00:50.745Z,2.03
2019-03-18T10:03:18.446Z,3.33
2019-03-18T10:05:46.233Z,2.20
2019-03-18T10:08:15.299Z,4.40
2019-03-18T10:10:43.217Z,3.50
2019-03-18T10:13:11.024Z,5.40
2019-03-18T10:15:39.350Z,4.70
2019-03-18T10:18:07.188Z,4.37
2019-03-18T10:20:35.064Z,5.37
2019-03-18T10:23:03.188Z,5.30
2019-03-18T10:25:31.355Z,5.03
2019-03-18T10:27:59.077Z,3.97
2019-03-18T10:30:26.872Z,3.50
2019-03-18T10:32:54.655Z,3.80
2019-03-18T10:35:22.482Z,4.00
2019-03-18T10:37:50.253Z,2.30
2019-03-18T10:40:18.109Z,4.67
2019-03-18T10:42:45.863Z,1.73
2019-03-18T10:45:18.734Z,2.30
2019-03-18T10:47:46.568Z,2.80
2019-03-18T10:50:14.353Z,3.13
2019-03-18T10:52:43.507Z,2.60
2019-03-18T10:55:11.533Z,3.33
2019-03-18T10:57:39.432Z,5.20
2019-03-18T11:00:09.347Z,3.40
2019-03-18T11:02:37.140Z,5.50
2019-03-18T11:05:08.072Z,3.07
2019-03-18T11:07:35.017Z,2.87
2019-03-18T11:10:05.548Z,5.37
2019-03-18T11:12:33.320Z,3.73
2019-03-18T11:15:01.327Z,4.20
2019-03-18T11:17:29.130Z,2.40
2019-03-18T11:19:58.812Z,2.73
2019-03-18T11:22:26.582Z,4.03
2019-03-18T11:24:54.393Z,4.80
2019-03-18T11:27:22.203Z,2.50
2019-03-18T11:29:49.949Z,2.10
2019-03-18T11:32:17.755Z,2.53
2019-03-18T11:35:04.957Z,2.67
2019-03-18T11:37:43.422Z,2.37
2019-03-18T11:40:11.480Z,1.83
2019-03-18T11:42:39.220Z,1.43
2019-03-18T11:45:08.818Z,2.67
2019-03-18T11:47:36.846Z,1.83
2019-03-18T11:50:11.131Z,1.73
2019-03-18T11:52:34.869Z,1.63
2019-03-18T11:55:03.339Z,1.87
2019-03-18T11:57:31.128Z,1.63
2019-03-18T12:00:00.055Z,1.80
2019-03-18T12:02:28.229Z,2.20
2019-03-18T12:04:57.612Z,1.73
2019-03-18T12:07:25.660Z,1.77
2019-03-18T12:09:53.502Z,1.80
2019-03-18T12:12:21.325Z,2.00
2019-03-18T12:14:54.441Z,2.43
2019-03-18T12:17:22.203Z,2.07
2019-03-18T12:19:50.008Z,2.00
2019-03-18T12:22:17.863Z,1.57
2019-03-18T12:24:45.683Z,3.10
2019-03-18T12:27:13.448Z,3.40
2019-03-18T12:30:00.700Z,2.43
2019-03-18T12:32:28.494Z,2.53
2019-03-18T12:34:56.359Z,1.87
2019-03-18T12:37:24.267Z,4.10
2019-03-18T12:39:52.088Z,5.03
2019-03-18T12:42:20.101Z,2.83
2019-03-18T12:44:47.859Z,3.47
2019-03-18T12:47:15.644Z,1.87
2019-03-18T12:49:43.518Z,2.23
2019-03-18T12:52:11.509Z,2.97
2019-03-18T12:54:39.698Z,1.53
2019-03-18T12:57:09.091Z,1.23
2019-03-18T12:59:36.950Z,1.70
2019-03-18T13:02:04.729Z,1.73
2019-03-18T13:04:34.724Z,4.63
2019-03-18T13:07:02.490Z,2.37
2019-03-18T13:09:30.308Z,4.43
2019-03-18T13:11:58.103Z,3.27
2019-03-18T13:14:27.225Z,1.73
2019-03-18T13:16:56.044Z,2.83
2019-03-18T13:19:23.868Z,2.60
2019-03-18T13:21:51.701Z,4.37
2019-03-18T13:24:20.571Z,4.30
2019-03-18T13:26:48.386Z,6.13
2019-03-18T13:29:16.257Z,4.20
2019-03-18T13:31:44.126Z,5.57
2019-03-18T13:34:12.145Z,5.57
2019-03-18T13:36:42.318Z,8.63
2019-03-18T13:39:10.145Z,3.90
2019-03-18T13:41:38.402Z,3.53
2019-03-18T13:44:06.249Z,1.77
2019-03-18T13:46:36.735Z,3.07
2019-03-18T13:49:04.563Z,4.50
2019-03-18T13:51:32.352Z,8.43
2019-03-18T13:54:00.575Z,4.80
2019-03-18T13:56:28.414Z,3.37
2019-03-18T13:58:56.196Z,2.43
2019-03-18T14:01:24.056Z,2.07
2019-03-18T14:03:51.836Z,2.77
2019-03-18T14:06:19.682Z,1.97
2019-03-18T14:08:47.421Z,1.97
2019-03-18T14:11:15.167Z,3.63
2019-03-18T14:13:43.361Z,2.80
2019-03-18T14:16:11.218Z,3.03
2019-03-18T14:18:39.006Z,1.90
2019-03-18T14:21:08.110Z,3.07
2019-03-18T14:23:35.904Z,2.10
2019-03-18T14:26:03.679Z,3.07
2019-03-18T14:28:31.473Z,2.93
2019-03-18T14:30:59.268Z,2.77
2019-03-18T14:33:33.077Z,4.33
2019-03-18T14:36:00.878Z,2.87
2019-03-18T14:38:28.678Z,5.13
2019-03-18T14:40:56.557Z,2.73
2019-03-18T14:43:24.378Z,2.57
2019-03-18T14:45:52.465Z,2.93
2019-03-18T14:48:20.282Z,2.90
2019-03-18T14:50:48.030Z,1.90
2019-03-18T14:53:15.866Z,2.07
2019-03-18T14:55:43.653Z,2.60
2019-03-18T14:58:11.471Z,2.07
2019-03-18T15:00:39.246Z,2.47
2019-03-18T15:03:07.059Z,1.70
2019-03-18T15:05:36.972Z,1.03
2019-03-18T15:08:04.620Z,2.33
2019-03-18T15:10:32.470Z,2.37
2019-03-18T15:13:00.261Z,3.47
2019-03-18T15:15:28.387Z,6.33
2019-03-18T15:17:56.181Z,2.63
2019-03-18T15:20:24.048Z,2.47
2019-03-18T15:22:51.826Z,1.47
2019-03-18T15:25:20.343Z,2.27
2019-03-18T15:27:50.659Z,2.67
2019-03-18T15:30:23.979Z,2.97
2019-03-18T15:32:55.967Z,4.27
2019-03-18T15:35:29.472Z,3.37
2019-03-18T15:37:57.279Z,2.67
2019-03-18T15:40:25.135Z,2.80
2019-03-18T15:42:53.694Z,2.30
2019-03-18T15:45:30.506Z,2.70
2019-03-18T15:47:58.320Z,2.60
2019-03-18T15:50:26.250Z,4.67
2019-03-18T15:52:54.022Z,4.30
2019-03-18T15:55:24.378Z,3.57
2019-03-18T15:57:55.902Z,2.50
2019-03-18T16:00:25.494Z,5.57
2019-03-18T16:02:55.404Z,4.27
2019-03-18T16:05:23.286Z,2.97
2019-03-18T16:07:51.077Z,1.97
2019-03-18T16:10:19.187Z,2.70
2019-03-18T16:12:47.327Z,3.57
2019-03-18T16:15:15.350Z,5.67
2019-03-18T16:17:43.227Z,4.03
2019-03-18T16:20:12.312Z,2.53
2019-03-18T16:22:43.193Z,2.40
2019-03-18T16:27:52.752Z,8.93
2019-03-18T16:30:20.683Z,2.70
2019-03-18T16:32:48.341Z,3.10
2019-03-18T16:35:16.521Z,1.97
2019-03-18T16:37:44.450Z,2.00
2019-03-18T16:40:12.591Z,3.83
2019-03-18T16:42:40.561Z,3.07
2019-03-18T16:45:10.042Z,3.27
2019-03-18T16:47:37.915Z,2.33
2019-03-18T16:50:07.860Z,5.93
2019-03-18T16:52:36.326Z,1.40
2019-03-18T16:55:04.982Z,4.70
2019-03-18T16:57:33.109Z,3.40
2019-03-18T17:00:01.637Z,7.80
2019-03-18T17:02:29.940Z,2.87
2019-03-18T17:04:58.496Z,4.37
2019-03-18T17:07:27.354Z,5.87
2019-03-18T17:09:56.062Z,4.03
2019-03-18T17:12:24.923Z,4.90
2019-03-18T17:14:53.605Z,3.50
2019-03-18T17:17:21.944Z,5.73
2019-03-18T17:19:53.450Z,3.73
2019-03-18T17:22:27.114Z,4.07
2019-03-18T17:24:57.329Z,9.43
2019-03-18T17:27:26.101Z,6.00
2019-03-18T17:29:55.029Z,4.23
2019-03-18T17:32:24.857Z,4.33
2019-03-18T17:34:53.541Z,11.03
2019-03-18T17:37:22.467Z,8.53
2019-03-18T17:39:51.360Z,13.93
2019-03-18T17:42:20.230Z,12.67
2019-03-18T17:44:48.916Z,14.40
2019-03-18T17:47:17.455Z,16.23
2019-03-18T17:49:46.403Z,20.43
2019-03-18T17:52:15.430Z,13.73
2019-03-18T17:54:45.222Z,17.00
2019-03-18T17:57:16.882Z,11.10
2019-03-18T17:59:45.547Z,10.63
2019-03-18T18:02:17.157Z,6.87
2019-03-18T18:05:03.447Z,8.83
2019-03-18T18:07:36.598Z,6.73
2019-03-18T18:10:09.584Z,14.13
2019-03-18T18:12:38.023Z,20.90
2019-03-18T18:15:06.600Z,15.57
2019-03-18T18:17:35.222Z,15.53
2019-03-18T18:20:05.608Z,11.87
2019-03-18T18:22:33.968Z,13.37
2019-03-18T18:25:02.195Z,13.27
2019-03-18T18:27:40.505Z,11.13
2019-03-18T18:30:09.036Z,6.63
2019-03-18T18:32:40.086Z,6.87
2019-03-18T18:35:29.741Z,7.00
2019-03-18T18:37:57.801Z,8.33
2019-03-18T18:40:26.577Z,9.10
2019-03-18T18:43:03.229Z,15.47
2019-03-18T18:45:37.596Z,12.43
2019-03-18T18:48:06.242Z,13.13
2019-03-18T18:50:41.246Z,17.57
2019-03-18T18:53:09.061Z,19.63
2019-03-18T18:55:39.920Z,9.50
2019-03-18T18:58:09.975Z,8.07
2019-03-18T19:00:37.767Z,10.47
2019-03-18T19:03:15.065Z,48.00
2019-03-18T19:05:47.382Z,22.90
2019-03-18T19:08:16.457Z,19.67
2019-03-18T19:10:49.383Z,22.03
2019-03-18T19:13:17.984Z,29.97
2019-03-18T19:15:48.072Z,23.80
2019-03-18T19:18:17.160Z,12.17
2019-03-18T19:20:45.118Z,10.87
2019-03-18T19:23:12.993Z,12.80
2019-03-18T19:25:46.931Z,6.10
2019-03-18T19:28:16.028Z,6.90
2019-03-18T19:30:43.910Z,6.07
2019-03-18T19:33:11.733Z,7.47
2019-03-18T19:35:43.492Z,6.70
2019-03-18T19:38:16.106Z,7.93
2019-03-18T19:40:44.737Z,19.83
2019-03-18T19:43:13.585Z,11.10
2019-03-18T19:45:45.172Z,11.93
2019-03-18T19:48:14.019Z,9.20
2019-03-18T19:50:42.548Z,7.67
2019-03-18T19:53:11.122Z,5.20
2019-03-18T19:55:39.993Z,6.17
2019-03-18T19:58:08.774Z,5.40
2019-03-18T20:00:37.504Z,5.37
2019-03-18T20:03:06.311Z,5.60
2019-03-18T20:05:34.876Z,9.00
2019-03-18T20:08:03.478Z,3.43
2019-03-18T20:10:32.696Z,3.83
2019-03-18T20:13:04.550Z,4.47
2019-03-18T20:15:43.495Z,5.00
2019-03-18T20:18:12.308Z,6.70
2019-03-18T20:20:40.859Z,4.23
2019-03-18T20:23:10.211Z,31.97
2019-03-18T20:25:41.511Z,39.37
2019-03-18T20:28:10.422Z,19.50
2019-03-18T20:30:51.709Z,11.03
2019-03-18T20:33:22.153Z,15.70
2019-03-18T20:35:50.735Z,10.33
2019-03-18T20:38:19.556Z,11.57
2019-03-18T20:40:48.311Z,76.00
2019-03-18T20:43:17.035Z,61.77
2019-03-18T20:45:45.684Z,12.83
2019-03-18T20:48:14.776Z,13.10
2019-03-18T20:50:43.738Z,24.87
2019-03-18T20:53:12.357Z,44.53
2019-03-18T20:55:41.159Z,38.53
2019-03-18T20:58:09.595Z,26.00
2019-03-18T21:00:38.278Z,21.07
2019-03-18T21:03:07.191Z,13.57
2019-03-18T21:05:36.161Z,5.17
2019-03-18T21:08:04.707Z,6.23
2019-03-18T21:10:33.100Z,4.30
2019-03-18T21:13:01.598Z,8.60
2019-03-18T21:15:30.203Z,15.60
2019-03-18T21:17:58.549Z,7.67
2019-03-18T21:20:26.465Z,11.67
2019-03-18T21:22:54.244Z,10.57
2019-03-18T21:25:22.201Z,12.07
2019-03-18T21:27:50.028Z,10.00
2019-03-18T21:30:18.088Z,13.90
2019-03-18T21:32:45.881Z,11.93
2019-03-18T21:35:13.677Z,11.93
2019-03-18T21:37:41.537Z,11.77
2019-03-18T21:40:11.231Z,13.30
2019-03-18T21:42:39.008Z,14.93
2019-03-18T21:45:08.766Z,13.23
2019-03-18T21:47:36.668Z,11.80
2019-03-18T21:50:05.102Z,10.70
2019-03-18T21:52:32.909Z,11.77
2019-03-18T21:55:00.807Z,19.40
2019-03-18T21:57:29.034Z,15.57
2019-03-18T21:59:57.726Z,27.07
2019-03-18T22:02:25.521Z,15.53
2019-03-18T22:04:53.343Z,14.17
2019-03-18T22:07:21.181Z,13.50
2019-03-18T22:09:48.956Z,19.33
2019-03-18T22:12:17.173Z,19.97
2019-03-18T22:14:45.102Z,19.83
2019-03-18T22:17:12.941Z,19.83
2019-03-18T22:19:43.248Z,17.47
2019-03-18T22:22:11.009Z,19.80
2019-03-18T22:24:58.271Z,9.87
2019-03-18T22:27:26.382Z,11.50
2019-03-18T22:29:54.494Z,15.73
2019-03-18T22:32:24.838Z,10.10
2019-03-18T22:34:52.028Z,8.87
2019-03-18T22:37:19.867Z,10.13
2019-03-18T22:39:47.697Z,13.13
2019-03-18T22:42:15.463Z,16.73
2019-03-18T22:44:43.334Z,11.77
2019-03-18T22:47:11.143Z,10.50
2019-03-18T22:49:39.096Z,14.27
2019-03-18T22:52:26.331Z,11.63
2019-03-18T22:54:59.404Z,10.17
2019-03-18T22:57:27.316Z,27.83
2019-03-18T22:59:55.496Z,17.50
2019-03-18T23:02:23.373Z,15.10
2019-03-18T23:04:51.462Z,12.63
2019-03-18T23:07:19.190Z,9.57
2019-03-18T23:09:47.088Z,11.90
2019-03-18T23:12:14.893Z,11.23
2019-03-18T23:14:42.794Z,15.27
2019-03-18T23:17:10.615Z,14.33
2019-03-18T23:19:38.417Z,12.47
2019-03-18T23:22:06.141Z,8.13
2019-03-18T23:24:33.943Z,9.37
2019-03-18T23:27:03.784Z,9.53
2019-03-18T23:29:31.639Z,12.83
2019-03-18T23:31:59.448Z,11.27
2019-03-18T23:34:27.322Z,10.37
2019-03-18T23:36:55.202Z,12.03
2019-03-18T23:39:23.013Z,9.73
2019-03-18T23:41:50.805Z,5.37
2019-03-18T23:44:18.692Z,6.40
2019-03-18T23:46:46.519Z,7.87
2019-03-18T23:49:16.508Z,10.50
2019-03-18T23:51:44.325Z,11.27
2019-03-18T23:54:12.124Z,8.80
2019-03-18T23:56:40.059Z,12.57
2019-03-18T23:59:08.981Z,11.70
